Terminal Aerodrome Forecast
Issued by NWS

Home | Current Version | Previous Version | Text Only | Print | Product List | Glossary On
Versions: 1 2 3 4 5 6 7 8 9 10 11 12 13
000
FTUS46 KLOX 260612 AAA
TAFBUR
TAF AMD
KBUR 260612Z 2606/2706 15004KT 4SM BR BKN010
     FM261200 VRB04KT 6SM BR OVC015
     FM261700 18010KT P6SM SKC=

USA.gov is the U.S. government's official web portal to all federal, state and local government web resources and services.